Time;durP1;ratioP1;P1;durP2;ratioP2;P2;SDS_P1;SDS_P2;PMS_P1;PMS_P2;Temp;Humidity;BMP_temperature;BMP_pressure;BME280_temperature;BME280_humidity;BME280_pressure;Samples;Min_cycle;Max_cycle;Signal;HPM_P1;HPM_P2
2022/03/20 00:00:47;;;;;;;40.90;20.30;;;1.10;99.90;;;;;;4964252;28;20180;-85
2022/03/20 00:03:13;;;;;;;31.88;19.23;;;1.00;99.90;;;;;;4987822;28;20748;-85
2022/03/20 00:05:40;;;;;;;40.28;20.27;;;1.00;99.90;;;;;;4973291;28;20184;-84
2022/03/20 00:08:09;;;;;;;35.97;21.55;;;1.00;99.90;;;;;;4990346;28;20527;-86
2022/03/20 00:10:44;;;;;;;36.67;20.25;;;1.00;99.90;;;;;;4974021;28;20247;-88
2022/03/20 00:13:12;;;;;;;33.58;18.75;;;1.00;99.90;;;;;;4970140;28;20226;-85
2022/03/20 00:15:40;;;;;;;30.40;18.35;;;1.10;99.90;;;;;;4971317;28;20255;-86
2022/03/20 00:18:06;;;;;;;27.13;17.35;;;1.10;99.90;;;;;;4989306;28;20210;-86
2022/03/20 00:20:47;;;;;;;37.00;20.05;;;1.10;99.90;;;;;;4966537;28;20211;-88
2022/03/20 00:23:14;;;;;;;43.78;22.27;;;1.10;99.90;;;;;;4981229;28;20215;-87
2022/03/20 00:25:42;;;;;;;33.97;20.35;;;1.10;99.90;;;;;;4962282;28;20188;-86
2022/03/20 00:28:09;;;;;;;36.20;21.73;;;1.10;99.90;;;;;;4959749;28;20243;-88
2022/03/20 00:30:36;;;;;;;29.40;18.75;;;1.10;99.90;;;;;;4963513;28;20247;-86
2022/03/20 00:33:02;;;;;;;33.30;19.42;;;1.00;99.90;;;;;;4967774;28;20203;-85
2022/03/20 00:35:31;;;;;;;27.47;17.40;;;0.90;99.90;;;;;;4961054;28;20180;-87
2022/03/20 00:37:57;;;;;;;30.08;17.42;;;0.80;99.90;;;;;;4966815;28;20272;-87
2022/03/20 00:40:23;;;;;;;37.60;19.30;;;0.90;99.90;;;;;;4968620;28;20258;-88
2022/03/20 00:42:48;;;;;;;33.20;18.40;;;0.70;99.90;;;;;;4983889;28;20490;-87
2022/03/20 00:45:14;;;;;;;33.80;18.40;;;0.70;99.90;;;;;;4983491;28;20183;-87
2022/03/20 00:47:39;;;;;;;27.73;16.27;;;0.60;99.90;;;;;;4972168;28;20187;-87
2022/03/20 00:50:05;;;;;;;28.03;19.13;;;0.60;99.90;;;;;;4968544;28;20287;-88
2022/03/20 00:52:34;;;;;;;30.27;18.73;;;0.60;99.90;;;;;;4965446;28;21271;-88
2022/03/20 00:55:00;;;;;;;29.50;17.88;;;0.50;99.90;;;;;;4985919;28;20447;-87
2022/03/20 00:57:25;;;;;;;32.13;18.53;;;0.60;99.90;;;;;;4984237;28;20191;-88
2022/03/20 00:59:51;;;;;;;32.77;19.60;;;0.60;99.90;;;;;;4967618;28;20470;-88
2022/03/20 01:02:17;;;;;;;31.47;17.70;;;0.60;99.90;;;;;;4986003;28;20471;-88
2022/03/20 01:04:42;;;;;;;31.90;18.00;;;0.60;99.90;;;;;;4966513;28;20215;-87
2022/03/20 01:07:08;;;;;;;34.47;18.40;;;0.40;99.90;;;;;;4965188;28;20187;-87
2022/03/20 01:09:34;;;;;;;30.17;17.70;;;0.40;99.90;;;;;;4964657;28;22507;-87
2022/03/20 01:12:01;;;;;;;34.30;19.58;;;0.30;99.90;;;;;;4970392;28;20215;-88
2022/03/20 01:14:27;;;;;;;34.40;19.00;;;0.40;99.90;;;;;;4985293;28;20180;-87
2022/03/20 01:16:54;;;;;;;36.63;20.58;;;0.30;99.90;;;;;;4970658;28;20687;-88
2022/03/20 01:19:24;;;;;;;26.52;17.67;;;0.30;99.90;;;;;;4963907;28;20279;-87
2022/03/20 01:21:51;;;;;;;30.02;16.05;;;0.30;99.90;;;;;;4969107;28;20199;-88
2022/03/20 01:24:16;;;;;;;29.42;19.13;;;0.30;99.90;;;;;;4967559;28;20207;-87
2022/03/20 01:26:42;;;;;;;28.93;17.13;;;0.30;99.90;;;;;;4975535;28;20190;-87
2022/03/20 01:29:08;;;;;;;33.67;18.13;;;0.40;99.90;;;;;;5000390;28;20192;-87
2022/03/20 01:31:34;;;;;;;31.13;17.43;;;0.40;99.90;;;;;;4988537;28;20210;-88
2022/03/20 01:34:00;;;;;;;28.58;16.13;;;0.40;99.90;;;;;;4987542;28;20219;-88
2022/03/20 01:36:26;;;;;;;34.33;18.10;;;0.50;99.90;;;;;;4962352;28;20218;-88
2022/03/20 01:38:53;;;;;;;29.60;16.00;;;0.60;99.90;;;;;;4972024;28;20194;-88
2022/03/20 01:41:18;;;;;;;31.58;17.17;;;0.70;99.90;;;;;;4969103;28;20205;-87
2022/03/20 01:43:56;;;;;;;27.77;16.40;;;0.70;99.90;;;;;;4962810;28;20203;-87
2022/03/20 01:46:22;;;;;;;36.28;17.83;;;0.80;99.90;;;;;;4980143;28;20179;-87
2022/03/20 01:48:49;;;;;;;32.13;18.77;;;1.00;99.90;;;;;;4963752;28;20179;-87
2022/03/20 01:51:15;;;;;;;29.05;16.33;;;1.10;99.90;;;;;;4955222;28;20283;-88
2022/03/20 01:53:42;;;;;;;33.70;18.10;;;1.20;99.90;;;;;;4960732;28;20188;-87
2022/03/20 01:56:07;;;;;;;30.30;16.73;;;1.30;99.90;;;;;;4967784;28;20307;-88
2022/03/20 01:58:34;;;;;;;28.40;17.40;;;1.40;99.90;;;;;;4982118;28;20295;-87
2022/03/20 02:01:01;;;;;;;29.40;16.98;;;1.40;99.90;;;;;;4961891;28;20238;-87
2022/03/20 02:03:27;;;;;;;37.60;17.65;;;1.40;99.90;;;;;;4980836;28;20230;-88
2022/03/20 02:05:53;;;;;;;27.80;16.13;;;1.20;99.90;;;;;;4963221;28;20243;-88
2022/03/20 02:08:25;;;;;;;25.67;16.95;;;1.10;99.90;;;;;;4994765;23;20276;-85
2022/03/20 02:10:54;;;;;;;27.33;16.80;;;1.10;99.90;;;;;;4968508;28;20183;-85
2022/03/20 02:13:22;;;;;;;31.17;17.35;;;1.10;99.90;;;;;;4976436;28;20175;-86
2022/03/20 02:15:49;;;;;;;29.52;15.88;;;1.10;99.90;;;;;;4971888;28;20176;-87
2022/03/20 02:18:15;;;;;;;29.67;16.63;;;1.00;99.90;;;;;;4984949;28;20195;-87
2022/03/20 02:20:47;;;;;;;34.60;17.83;;;1.00;99.90;;;;;;4966703;28;20656;-87
2022/03/20 02:23:13;;;;;;;27.00;15.93;;;1.10;99.90;;;;;;4975526;28;20191;-88
2022/03/20 02:25:47;;;;;;;33.00;16.03;;;1.20;99.90;;;;;;4967366;28;20176;-87
2022/03/20 02:28:13;;;;;;;30.20;18.48;;;1.30;99.90;;;;;;4966289;28;20460;-87
2022/03/20 02:30:39;;;;;;;29.63;16.03;;;1.30;99.90;;;;;;4965647;28;20175;-87
2022/03/20 02:33:04;;;;;;;26.90;16.03;;;1.30;99.90;;;;;;4974169;28;20190;-86
2022/03/20 02:35:32;;;;;;;30.40;17.73;;;1.00;99.90;;;;;;4963842;28;20226;-86
2022/03/20 02:37:57;;;;;;;29.33;16.75;;;1.00;99.90;;;;;;4982870;28;20211;-87
2022/03/20 02:40:23;;;;;;;32.27;18.40;;;2.30;99.90;;;;;;4969274;28;20180;-87
2022/03/20 02:42:51;;;;;;;30.33;16.40;;;1.10;99.90;;;;;;4982595;28;20183;-87
2022/03/20 02:45:29;;;;;;;31.15;16.05;;;1.20;99.90;;;;;;4965956;28;20176;-86
2022/03/20 02:47:56;;;;;;;28.92;16.48;;;1.40;99.90;;;;;;4980908;28;20616;-86
2022/03/20 02:50:24;;;;;;;30.27;17.30;;;1.60;99.90;;;;;;4989311;28;20245;-87
2022/03/20 02:52:54;;;;;;;26.83;15.90;;;1.70;99.90;;;;;;4987577;28;20187;-88
2022/03/20 02:55:24;;;;;;;31.10;14.98;;;1.90;99.90;;;;;;4971616;28;20187;-86
2022/03/20 02:57:51;;;;;;;31.30;15.95;;;2.00;99.90;;;;;;4981107;28;20219;-86
2022/03/20 03:00:18;;;;;;;26.20;15.85;;;2.20;99.90;;;;;;4966799;28;20196;-87
2022/03/20 03:02:45;;;;;;;27.23;16.00;;;2.20;99.90;;;;;;4986743;28;20178;-87
2022/03/20 03:05:18;;;;;;;24.75;15.68;;;2.40;99.90;;;;;;4986067;28;20206;-87
2022/03/20 03:13:21;;;;;;;29.00;15.85;;;2.40;99.90;;;;;;5002616;28;20226;-87
2022/03/20 03:15:46;;;;;;;24.75;14.98;;;2.50;99.90;;;;;;4984945;28;20179;-91
2022/03/20 03:18:12;;;;;;;29.23;16.87;;;2.60;99.90;;;;;;4983261;28;20221;-86
2022/03/20 03:20:38;;;;;;;25.50;15.10;;;2.60;99.90;;;;;;4983533;28;20175;-86
2022/03/20 03:23:04;;;;;;;30.83;15.13;;;2.60;99.90;;;;;;5001567;28;20198;-87
2022/03/20 03:25:35;;;;;;;27.73;15.15;;;2.70;99.90;;;;;;4983644;28;20198;-87
2022/03/20 03:28:01;;;;;;;27.45;15.68;;;2.90;99.90;;;;;;5000728;28;20346;-86
2022/03/20 03:30:27;;;;;;;29.00;15.80;;;2.90;99.90;;;;;;4982621;28;20183;-87
2022/03/20 03:32:52;;;;;;;26.33;15.40;;;3.00;99.90;;;;;;4982531;28;20187;-86
2022/03/20 03:38:03;;;;;;;31.05;16.45;;;3.20;99.90;;;;;;4980554;28;20262;-87
2022/03/20 03:40:30;;;;;;;25.55;15.55;;;3.20;99.90;;;;;;4963706;28;20663;-87
2022/03/20 03:42:56;;;;;;;31.52;16.23;;;3.30;99.90;;;;;;4973906;28;20183;-88
2022/03/20 03:45:23;;;;;;;31.20;16.63;;;3.50;99.90;;;;;;4980695;28;20618;-88
2022/03/20 03:47:49;;;;;;;30.08;16.40;;;3.60;99.90;;;;;;4978279;28;20522;-87
2022/03/20 03:50:14;;;;;;;27.45;14.07;;;3.60;99.90;;;;;;4980476;28;20183;-87
2022/03/20 03:52:40;;;;;;;35.37;16.30;;;3.60;99.90;;;;;;4973692;28;20179;-87
2022/03/20 03:55:07;;;;;;;27.53;15.27;;;3.70;99.90;;;;;;4978856;28;20271;-88
2022/03/20 03:57:32;;;;;;;27.23;16.42;;;3.70;99.90;;;;;;4990594;28;20613;-89
2022/03/20 03:59:59;;;;;;;23.50;14.57;;;3.80;99.90;;;;;;4979249;28;20317;-88
2022/03/20 04:02:25;;;;;;;31.75;15.00;;;3.80;99.90;;;;;;4977846;28;20187;-87
2022/03/20 04:04:51;;;;;;;37.50;15.67;;;3.80;99.90;;;;;;4998854;28;20187;-88
2022/03/20 04:07:17;;;;;;;25.38;15.32;;;3.90;99.90;;;;;;4997866;28;20663;-88
2022/03/20 04:09:49;;;;;;;28.30;14.95;;;3.90;99.90;;;;;;4977128;28;20568;-87
2022/03/20 04:12:15;;;;;;;28.05;15.02;;;3.90;99.90;;;;;;4984057;28;20179;-88
2022/03/20 04:14:42;;;;;;;23.10;14.57;;;4.00;99.90;;;;;;5001123;28;20179;-87
2022/03/20 04:17:08;;;;;;;24.63;15.52;;;4.10;99.90;;;;;;4981294;28;20202;-88
2022/03/20 04:19:34;;;;;;;25.95;13.68;;;4.10;99.90;;;;;;4999304;28;20171;-88
2022/03/20 04:22:00;;;;;;;28.10;15.27;;;4.20;99.90;;;;;;4984719;28;20175;-87
2022/03/20 04:24:25;;;;;;;31.40;17.50;;;4.20;99.90;;;;;;5001517;28;20160;-88
2022/03/20 04:26:51;;;;;;;27.20;14.23;;;4.20;99.90;;;;;;4982288;28;20175;-86
2022/03/20 04:29:20;;;;;;;34.72;15.85;;;4.20;99.90;;;;;;4979583;28;20222;-89
2022/03/20 04:31:48;;;;;;;27.92;14.70;;;3.80;99.90;;;;;;4969310;28;20275;-87
2022/03/20 04:34:13;;;;;;;30.92;16.65;;;4.30;99.90;;;;;;4982687;28;20189;-88
2022/03/20 04:36:39;;;;;;;27.50;14.30;;;4.30;99.90;;;;;;5000218;28;20285;-86
2022/03/20 04:39:04;;;;;;;24.50;14.87;;;4.30;99.90;;;;;;4998435;28;20744;-86
2022/03/20 04:41:30;;;;;;;27.67;16.50;;;4.30;99.90;;;;;;4982939;28;20528;-88
2022/03/20 04:43:56;;;;;;;27.57;15.73;;;4.20;99.90;;;;;;4978223;28;20207;-88
2022/03/20 04:46:22;;;;;;;27.83;16.25;;;4.10;99.90;;;;;;4975836;28;20195;-88
2022/03/20 04:59:44;;;;;;;28.35;13.70;;;4.40;99.90;;;;;;5001743;28;20309;-88
2022/03/20 05:02:10;;;;;;;28.17;16.00;;;4.50;99.90;;;;;;4983591;28;20234;-89
2022/03/20 05:04:37;;;;;;;33.58;16.95;;;4.40;99.90;;;;;;4984905;28;20175;-87
2022/03/20 05:07:16;;;;;;;29.80;15.40;;;4.50;99.90;;;;;;4984219;28;20175;-88
2022/03/20 05:15:10;;;;;;;26.33;13.60;;;4.60;99.90;;;;;;5002397;28;20170;-87
2022/03/20 05:17:37;;;;;;;29.33;14.80;;;4.50;99.90;;;;;;4986145;28;20203;-87
2022/03/20 05:20:03;;;;;;;27.70;14.65;;;4.50;99.90;;;;;;4984680;28;20214;-86
2022/03/20 05:22:30;;;;;;;30.15;15.23;;;4.60;99.90;;;;;;4985775;28;20612;-88
2022/03/20 05:24:56;;;;;;;24.60;14.55;;;4.60;99.90;;;;;;4986201;28;20201;-87
2022/03/20 05:27:22;;;;;;;28.52;12.77;;;4.70;99.90;;;;;;4986299;28;20178;-87
2022/03/20 05:29:47;;;;;;;31.23;16.53;;;4.70;99.90;;;;;;4984523;28;20187;-88
2022/03/20 05:32:13;;;;;;;34.20;17.33;;;4.80;99.90;;;;;;4982652;28;20547;-89
2022/03/20 05:34:39;;;;;;;35.90;17.87;;;4.80;99.90;;;;;;4968234;28;20692;-87
2022/03/20 05:37:07;;;;;;;29.67;18.08;;;4.90;99.90;;;;;;4983199;28;20205;-88
2022/03/20 05:39:33;;;;;;;30.15;17.85;;;4.80;99.90;;;;;;4982772;28;20198;-87
2022/03/20 05:41:58;;;;;;;28.70;17.17;;;4.80;99.90;;;;;;4981363;28;20187;-87
2022/03/20 05:44:26;;;;;;;27.43;15.23;;;4.90;99.90;;;;;;4997875;28;20418;-88
2022/03/20 05:46:52;;;;;;;34.92;16.80;;;5.00;99.90;;;;;;4979063;28;20219;-86
2022/03/20 05:49:19;;;;;;;34.00;18.13;;;5.10;99.90;;;;;;4967786;28;20203;-86
2022/03/20 05:51:46;;;;;;;37.08;17.60;;;5.10;99.90;;;;;;4977133;28;20641;-87
2022/03/20 05:54:12;;;;;;;28.27;13.70;;;5.20;99.90;;;;;;4996134;28;20571;-88
2022/03/20 05:59:23;;;;;;;32.30;21.00;;;5.30;99.90;;;;;;4996454;28;20214;-89
2022/03/20 06:01:52;;;;;;;33.30;16.10;;;5.40;99.90;;;;;;4981015;28;20175;-89
2022/03/20 06:04:18;;;;;;;29.77;16.10;;;5.40;99.90;;;;;;4980352;28;20247;-89
2022/03/20 06:06:44;;;;;;;36.08;19.75;;;5.60;99.90;;;;;;4969939;28;20230;-89
2022/03/20 06:09:10;;;;;;;31.87;18.40;;;5.60;99.90;;;;;;4976256;28;20218;-88
2022/03/20 06:11:35;;;;;;;30.03;17.67;;;5.60;99.90;;;;;;4971649;28;20641;-88
2022/03/20 06:14:03;;;;;;;36.00;18.93;;;5.70;99.90;;;;;;4978653;28;20187;-89
2022/03/20 06:16:29;;;;;;;23.45;15.45;;;5.70;99.90;;;;;;4992254;28;20677;-90
2022/03/20 06:18:55;;;;;;;25.55;14.70;;;5.80;99.90;;;;;;4970582;28;20206;-89
2022/03/20 06:21:22;;;;;;;29.10;15.40;;;5.70;99.90;;;;;;4977250;28;20182;-88
2022/03/20 06:23:54;;;;;;;38.58;16.75;;;5.80;99.90;;;;;;4980845;28;20281;-90
2022/03/20 06:26:21;;;;;;;33.63;17.73;;;5.90;99.90;;;;;;4999495;28;20644;-88
2022/03/20 06:28:48;;;;;;;32.25;16.40;;;5.90;99.90;;;;;;4980795;28;20199;-90
2022/03/20 06:31:15;;;;;;;33.17;15.73;;;5.90;99.90;;;;;;4998631;28;20172;-86
2022/03/20 06:33:40;;;;;;;34.17;16.70;;;5.90;99.90;;;;;;4981031;28;20175;-87
2022/03/20 06:36:07;;;;;;;35.00;17.07;;;6.00;99.90;;;;;;4980516;28;20206;-87
2022/03/20 06:38:35;;;;;;;31.80;16.67;;;6.10;99.90;;;;;;4980578;28;20195;-90
2022/03/20 06:41:01;;;;;;;25.27;14.68;;;6.20;99.90;;;;;;4980755;28;20777;-86
2022/03/20 06:43:30;;;;;;;27.50;14.83;;;6.40;99.90;;;;;;4979138;28;20206;-86
2022/03/20 06:45:58;;;;;;;29.30;15.75;;;6.60;99.90;;;;;;4981494;28;20414;-87
2022/03/20 06:48:24;;;;;;;31.23;18.63;;;7.30;99.90;;;;;;4998653;28;20605;-87
2022/03/20 06:50:50;;;;;;;29.70;17.45;;;7.60;99.90;;;;;;4996866;28;20176;-88
2022/03/20 06:53:18;;;;;;;32.90;18.13;;;7.50;99.90;;;;;;4977316;28;20179;-89
2022/03/20 06:55:45;;;;;;;32.88;18.48;;;7.90;99.90;;;;;;4980650;28;20171;-87
2022/03/20 06:58:11;;;;;;;36.15;19.90;;;8.40;99.90;;;;;;4992287;28;20235;-88
2022/03/20 07:00:37;;;;;;;32.30;16.55;;;8.80;99.90;;;;;;4978709;28;20186;-87
2022/03/20 07:03:06;;;;;;;32.97;16.63;;;8.60;99.90;;;;;;4978062;28;20553;-87
2022/03/20 07:05:33;;;;;;;34.55;19.15;;;9.00;99.90;;;;;;4981621;28;20438;-86
2022/03/20 07:08:00;;;;;;;33.58;16.95;;;9.30;99.90;;;;;;4979892;28;20207;-88
2022/03/20 07:10:26;;;;;;;33.75;20.67;;;8.90;99.90;;;;;;4979249;28;20205;-87
2022/03/20 07:15:37;;;;;;;32.88;18.60;;;8.90;99.90;;;;;;4996734;28;20588;-88
2022/03/20 07:18:03;;;;;;;34.30;19.20;;;9.40;99.90;;;;;;4979142;28;20207;-89
2022/03/20 07:20:31;;;;;;;30.95;16.85;;;10.00;99.90;;;;;;4996025;28;20178;-87
2022/03/20 07:22:56;;;;;;;34.22;18.65;;;10.10;99.30;;;;;;4977753;28;20652;-87
2022/03/20 07:30:50;;;;;;;33.70;21.40;;;11.20;96.00;;;;;;4989712;28;20217;-88
2022/03/20 07:33:16;;;;;;;35.03;21.37;;;11.40;95.40;;;;;;4966287;28;20180;-89
2022/03/20 07:35:42;;;;;;;28.07;17.43;;;12.10;95.00;;;;;;4979890;28;20528;-88
2022/03/20 07:38:08;;;;;;;33.57;19.83;;;11.60;93.30;;;;;;4982488;28;20230;-90
2022/03/20 07:40:34;;;;;;;33.92;20.42;;;11.50;93.90;;;;;;5001160;28;20422;-89
2022/03/20 07:43:00;;;;;;;38.60;21.10;;;11.10;94.30;;;;;;4983845;28;20175;-89
2022/03/20 07:45:25;;;;;;;27.17;16.60;;;10.90;94.50;;;;;;4984291;28;20512;-89
2022/03/20 07:47:51;;;;;;;31.10;18.23;;;10.60;95.00;;;;;;4984086;28;20696;-90
2022/03/20 07:50:16;;;;;;;31.50;18.57;;;10.50;95.80;;;;;;4984339;28;20218;-89
2022/03/20 07:52:42;;;;;;;38.37;20.87;;;9.70;95.70;;;;;;4983718;28;20241;-90
2022/03/20 07:55:08;;;;;;;31.83;19.90;;;9.50;96.70;;;;;;5001494;28;20621;-89
2022/03/20 07:57:41;;;;;;;29.85;16.15;;;9.50;97.50;;;;;;4984915;28;20249;-89
2022/03/20 08:00:08;;;;;;;27.55;16.20;;;9.30;97.80;;;;;;4979910;28;20242;-90
2022/03/20 08:02:34;;;;;;;29.75;18.95;;;9.50;98.90;;;;;;4978876;28;20195;-91
2022/03/20 08:05:00;;;;;;;35.47;22.83;;;10.60;98.00;;;;;;4973105;28;20187;-88
2022/03/20 08:07:26;;;;;;;32.50;20.13;;;10.40;95.70;;;;;;4971822;28;20179;-88
2022/03/20 08:09:52;;;;;;;26.70;16.87;;;10.30;96.10;;;;;;4982924;28;20477;-88
2022/03/20 08:12:18;;;;;;;36.10;18.40;;;9.50;97.50;;;;;;4969066;28;20442;-88
2022/03/20 08:14:44;;;;;;;50.03;30.52;;;9.00;97.80;;;;;;4987357;28;20604;-89
2022/03/20 08:17:10;;;;;;;46.47;20.08;;;8.60;99.90;;;;;;4969222;28;20578;-88
2022/03/20 08:19:35;;;;;;;37.03;20.40;;;8.60;99.90;;;;;;4983888;28;20266;-87
2022/03/20 08:22:05;;;;;;;39.83;22.77;;;8.40;99.90;;;;;;4984692;28;20177;-87
2022/03/20 08:24:30;;;;;;;31.73;19.33;;;8.40;99.90;;;;;;4968502;28;20176;-87
2022/03/20 08:26:57;;;;;;;29.87;17.07;;;8.40;99.90;;;;;;4985472;28;21464;-87
2022/03/20 08:29:23;;;;;;;40.13;22.30;;;8.40;99.90;;;;;;4981978;28;20566;-87
2022/03/20 08:31:48;;;;;;;30.87;16.17;;;8.60;99.90;;;;;;4982839;28;20202;-88
2022/03/20 08:34:15;;;;;;;29.37;17.90;;;8.80;99.90;;;;;;4981235;28;20258;-87
2022/03/20 08:36:42;;;;;;;25.98;16.60;;;8.80;99.90;;;;;;4968817;28;20207;-87
2022/03/20 08:39:08;;;;;;;36.25;18.95;;;9.10;99.90;;;;;;4983059;28;20837;-87
2022/03/20 08:41:34;;;;;;;43.78;24.58;;;9.90;99.70;;;;;;4979446;28;20212;-87
2022/03/20 08:44:01;;;;;;;39.23;20.50;;;9.90;99.80;;;;;;4983689;28;20227;-87
2022/03/20 08:46:27;;;;;;;38.20;21.00;;;10.40;98.40;;;;;;4974797;28;20664;-87
2022/03/20 08:48:52;;;;;;;30.13;17.47;;;10.80;97.80;;;;;;4964727;28;20342;-86
2022/03/20 08:51:21;;;;;;;32.07;20.87;;;10.70;96.10;;;;;;4967593;28;20205;-87
2022/03/20 08:54:05;;;;;;;35.70;21.05;;;11.20;97.30;;;;;;4980091;28;20172;-87
2022/03/20 08:56:40;;;;;;;36.10;22.63;;;13.40;96.10;;;;;;4972313;28;20218;-88
2022/03/20 08:59:10;;;;;;;36.00;23.23;;;16.60;93.90;;;;;;4982960;28;20442;-84
2022/03/20 09:01:58;;;;;;;37.30;22.83;;;17.70;84.30;;;;;;4995188;28;20411;-84
2022/03/20 09:04:26;;;;;;;37.87;21.97;;;18.60;75.10;;;;;;4993202;28;20417;-85
2022/03/20 09:06:56;;;;;;;38.70;22.47;;;17.70;72.30;;;;;;4977215;28;21123;-84
2022/03/20 09:09:22;;;;;;;38.03;21.10;;;15.70;72.50;;;;;;4963453;28;20495;-86
2022/03/20 09:11:47;;;;;;;39.73;22.33;;;15.00;74.40;;;;;;4980745;28;20473;-85
2022/03/20 09:14:13;;;;;;;36.00;23.33;;;15.40;76.50;;;;;;4977023;28;20230;-85
2022/03/20 09:19:22;;;;;;;34.40;21.57;;;16.90;74.40;;;;;;4993880;28;20274;-85
2022/03/20 09:21:48;;;;;;;39.60;22.30;;;16.70;73.00;;;;;;4977172;28;20493;-85
2022/03/20 09:24:15;;;;;;;35.63;22.37;;;15.80;73.10;;;;;;4994545;28;20230;-86
2022/03/20 09:26:41;;;;;;;38.30;24.97;;;16.30;75.40;;;;;;4993983;28;20155;-85
2022/03/20 09:29:06;;;;;;;32.93;22.60;;;16.90;75.60;;;;;;4994481;28;20970;-85
2022/03/20 09:31:34;;;;;;;35.13;23.73;;;17.20;69.20;;;;;;4977075;28;20186;-83
2022/03/20 09:34:01;;;;;;;38.03;21.97;;;17.80;68.50;;;;;;4993553;28;20167;-85
2022/03/20 09:36:27;;;;;;;36.53;22.37;;;17.30;67.30;;;;;;4976004;28;20458;-85
2022/03/20 09:38:53;;;;;;;30.80;21.07;;;17.30;69.50;;;;;;4976147;28;20446;-85
2022/03/20 09:41:21;;;;;;;38.70;21.17;;;17.40;70.10;;;;;;4988068;28;20533;-85
2022/03/20 09:43:46;;;;;;;34.73;22.20;;;17.90;67.40;;;;;;4974532;28;20659;-85
2022/03/20 09:46:14;;;;;;;37.80;20.87;;;18.10;67.30;;;;;;4983093;28;20427;-86
2022/03/20 09:48:41;;;;;;;33.00;23.00;;;16.80;68.90;;;;;;4988413;28;20257;-86
2022/03/20 09:51:07;;;;;;;38.50;23.00;;;16.50;69.30;;;;;;4993297;28;20426;-85
2022/03/20 09:53:33;;;;;;;36.13;23.43;;;16.30;71.10;;;;;;4993777;28;20899;-88
2022/03/20 09:55:58;;;;;;;36.60;22.40;;;15.70;72.30;;;;;;4974793;28;20270;-85
2022/03/20 09:58:28;;;;;;;35.03;21.40;;;14.90;72.30;;;;;;4967641;28;20711;-84
2022/03/20 10:00:55;;;;;;;34.83;20.43;;;13.90;75.50;;;;;;4991286;28;20190;-84
2022/03/20 10:03:23;;;;;;;35.37;21.40;;;13.60;76.90;;;;;;4991388;28;20390;-84
2022/03/20 10:06:17;;;;;;;38.30;22.85;;;13.10;79.80;;;;;;4974030;28;20403;-85
2022/03/20 10:09:04;;;;;;;32.97;22.23;;;12.80;81.80;;;;;;4950747;28;20235;-84
2022/03/20 10:11:30;;;;;;;36.53;21.90;;;12.90;83.30;;;;;;4953803;28;20266;-84
2022/03/20 10:14:29;;;;;;;36.90;21.88;;;13.00;82.00;;;;;;4954386;28;20407;-84
2022/03/20 10:17:09;;;;;;;35.85;23.42;;;13.20;83.70;;;;;;4971674;28;20307;-86
2022/03/20 10:19:35;;;;;;;37.25;20.60;;;13.40;84.80;;;;;;4954244;28;20286;-85
2022/03/20 10:22:04;;;;;;;37.03;21.30;;;13.50;84.10;;;;;;4973220;28;20168;-85
2022/03/20 10:24:31;;;;;;;42.00;23.23;;;13.40;83.50;;;;;;4973550;28;20164;-85
2022/03/20 10:27:00;;;;;;;31.50;20.10;;;13.30;85.50;;;;;;4955561;28;20182;-84
2022/03/20 10:29:27;;;;;;;33.92;20.50;;;13.30;85.10;;;;;;4955111;28;21063;-86
2022/03/20 10:31:55;;;;;;;35.25;21.50;;;12.80;87.10;;;;;;4954338;28;20198;-84
2022/03/20 10:34:23;;;;;;;35.88;21.02;;;12.60;89.40;;;;;;4953412;28;20282;-85
2022/03/20 10:36:50;;;;;;;28.42;17.48;;;12.60;89.80;;;;;;4972171;28;20196;-84
2022/03/20 10:39:21;;;;;;;37.20;21.90;;;12.50;91.00;;;;;;4954208;28;20192;-85
2022/03/20 10:41:53;;;;;;;34.10;21.23;;;12.80;90.60;;;;;;4953139;28;20164;-85
2022/03/20 10:44:24;;;;;;;27.75;18.98;;;13.00;91.40;;;;;;4954460;28;20242;-85
2022/03/20 10:47:02;;;;;;;32.83;20.98;;;13.20;91.50;;;;;;4954284;28;20184;-87
2022/03/20 10:49:28;;;;;;;29.80;18.27;;;13.60;91.80;;;;;;4953588;28;20215;-85
2022/03/20 10:52:21;;;;;;;32.20;16.90;;;14.00;91.80;;;;;;4954097;28;20422;-85
2022/03/20 10:54:50;;;;;;;31.33;18.87;;;14.40;92.00;;;;;;4953524;28;20424;-84
2022/03/20 10:57:17;;;;;;;30.17;16.77;;;14.80;92.30;;;;;;4970841;28;20953;-84
2022/03/20 10:59:43;;;;;;;29.40;18.07;;;14.90;91.80;;;;;;4972410;28;20892;-86
2022/03/20 11:02:22;;;;;;;30.63;16.33;;;14.80;92.10;;;;;;4971632;28;20957;-86
2022/03/20 11:04:48;;;;;;;27.10;15.33;;;14.50;91.80;;;;;;4952818;28;20912;-86
2022/03/20 11:07:16;;;;;;;23.20;15.60;;;14.80;92.20;;;;;;4953982;28;20400;-85
2022/03/20 11:09:52;;;;;;;26.60;15.37;;;14.80;92.30;;;;;;4972308;28;20529;-86
2022/03/20 11:12:22;;;;;;;25.57;16.57;;;14.80;91.90;;;;;;4957877;28;20646;-84
2022/03/20 11:14:48;;;;;;;36.47;17.00;;;14.90;92.20;;;;;;4976047;28;20423;-84
2022/03/20 11:17:17;;;;;;;27.43;15.50;;;15.70;91.90;;;;;;4958178;28;20534;-85
2022/03/20 11:19:49;;;;;;;30.27;15.97;;;15.70;92.20;;;;;;4957735;28;20396;-84
2022/03/20 11:22:18;;;;;;;29.07;15.60;;;15.90;90.70;;;;;;4957965;28;20414;-84
2022/03/20 11:24:51;;;;;;;22.63;14.20;;;15.70;90.10;;;;;;4959049;28;20431;-84
2022/03/20 11:27:27;;;;;;;22.77;15.87;;;15.90;89.70;;;;;;4959276;28;20422;-84
2022/03/20 11:30:01;;;;;;;23.47;14.20;;;15.90;90.10;;;;;;4976279;28;20391;-84
2022/03/20 11:32:27;;;;;;;31.60;16.07;;;;;;;;;;4976462;28;20407;-84
2022/03/20 11:34:54;;;;;;;26.13;14.30;;;16.20;90.60;;;;;;4957927;28;20457;-85
2022/03/20 11:37:19;;;;;;;24.97;15.13;;;16.80;88.60;;;;;;4975974;28;20787;-84
2022/03/20 11:40:08;;;;;;;28.13;15.83;;;16.80;89.00;;;;;;4975724;28;21012;-84
2022/03/20 11:42:34;;;;;;;32.13;14.60;;;17.20;88.50;;;;;;4957288;28;20180;-84
2022/03/20 11:44:59;;;;;;;25.90;14.37;;;17.20;88.10;;;;;;4975230;28;20916;-87
2022/03/20 11:47:32;;;;;;;21.33;12.93;;;17.40;90.40;;;;;;4957397;28;20211;-84
2022/03/20 11:50:17;;;;;;;24.60;15.13;;;18.00;88.50;;;;;;4975038;28;20168;-85
2022/03/20 11:52:49;;;;;;;24.77;14.20;;;18.70;86.10;;;;;;4974698;28;20906;-84
2022/03/20 11:55:27;;;;;;;22.67;14.80;;;19.00;85.30;;;;;;4957172;28;20913;-85
2022/03/20 11:57:53;;;;;;;26.30;16.93;;;19.20;84.10;;;;;;4956893;28;21050;-85
2022/03/20 12:00:24;;;;;;;21.20;13.93;;;19.20;82.70;;;;;;4974469;28;20400;-84
2022/03/20 12:03:00;;;;;;;28.10;13.47;;;19.10;81.40;;;;;;4957565;28;20714;-84
2022/03/20 12:05:41;;;;;;;19.93;13.83;;;19.00;79.90;;;;;;4974481;28;20403;-84
2022/03/20 12:08:25;;;;;;;23.80;14.80;;;18.90;80.60;;;;;;4957227;28;20431;-84
2022/03/20 12:11:03;;;;;;;32.07;21.90;;;18.70;79.60;;;;;;4958081;28;20833;-84
2022/03/20 12:13:53;;;;;;;35.93;21.30;;;18.50;76.50;;;;;;4956998;28;20458;-84
2022/03/20 12:16:47;;;;;;;36.80;20.77;;;17.70;77.30;;;;;;4956589;28;20427;-84
2022/03/20 12:19:14;;;;;;;30.17;19.63;;;17.20;77.20;;;;;;4956246;28;20431;-86
2022/03/20 12:21:52;;;;;;;31.83;21.10;;;17.00;80.60;;;;;;4971798;28;20772;-86
2022/03/20 12:24:36;;;;;;;31.13;17.87;;;16.70;81.90;;;;;;4972637;28;20387;-86
2022/03/20 12:27:25;;;;;;;32.27;17.70;;;16.20;81.20;;;;;;4955319;28;20451;-85
2022/03/20 12:30:03;;;;;;;43.97;17.00;;;16.10;84.10;;;;;;4958016;28;20506;-86
2022/03/20 12:32:47;;;;;;;26.23;16.47;;;16.30;84.60;;;;;;4955697;28;20498;-86
2022/03/20 12:35:17;;;;;;;23.50;14.73;;;16.80;86.70;;;;;;4955480;28;20491;-87
2022/03/20 12:37:44;;;;;;;30.17;15.50;;;17.00;85.90;;;;;;4957113;28;20573;-86
2022/03/20 12:40:27;;;;;;;25.77;16.03;;;17.00;84.80;;;;;;4974306;28;20412;-84
2022/03/20 12:43:07;;;;;;;26.57;16.23;;;17.50;84.20;;;;;;4976777;28;20470;-84
2022/03/20 12:45:35;;;;;;;27.63;15.83;;;17.60;80.80;;;;;;4958630;28;20410;-86
2022/03/20 12:48:03;;;;;;;27.27;15.70;;;17.60;79.90;;;;;;4958437;28;20451;-86
2022/03/20 12:50:35;;;;;;;24.63;16.40;;;17.50;80.50;;;;;;4958351;28;20551;-86
2022/03/20 12:53:17;;;;;;;33.00;16.47;;;17.40;79.50;;;;;;4957856;28;20450;-85
2022/03/20 12:55:53;;;;;;;21.87;14.87;;;17.30;79.80;;;;;;4975009;28;20452;-86
2022/03/20 12:58:19;;;;;;;26.93;16.00;;;17.40;82.00;;;;;;4957399;28;20998;-86
2022/03/20 13:00:45;;;;;;;27.10;15.13;;;17.30;81.80;;;;;;4958053;28;20407;-86
2022/03/20 13:03:18;;;;;;;22.00;14.67;;;17.20;81.00;;;;;;4958103;28;20654;-86
2022/03/20 13:05:51;;;;;;;25.23;16.77;;;17.00;80.10;;;;;;4957602;28;20908;-85
2022/03/20 13:08:34;;;;;;;27.23;15.03;;;17.00;80.50;;;;;;4957173;28;20435;-85
2022/03/20 13:14:12;;;;;;;25.03;15.97;;;17.00;80.30;;;;;;4974514;28;20406;-85
2022/03/20 13:17:04;;;;;;;18.20;13.70;;;17.00;78.90;;;;;;4957235;28;20457;-86
2022/03/20 13:19:37;;;;;;;25.70;15.47;;;16.80;79.10;;;;;;4957470;28;20439;-86
2022/03/20 13:22:07;;;;;;;24.73;12.83;;;17.00;78.10;;;;;;4957948;28;20396;-85